메인 페이지
METAR-TAF:

METAR-TAF

공항 :

지브롤터 공항

지브롤터, 지브롤터

위도: 36-09N, 경도: 005-21W, 고도: 5m

현재 날씨관측

예보는 1 시간 14분 전, 01:50시(UTC)에 발표되었습니다.
4kt
온도 20°C
습도 88%
기압 1018 hPa
시정 10km 이상

METAR: LXGB 160150Z AUTO 27004KT 9999 // NCD 20/18 Q1018

시각: 05:04 (03:04 UTC)

예보

예보는 13 시간 29분 전, 13:35시(UTC)에 발표되었습니다.
예보 대상 시간: 15일 15시부터 15일 22시까지 (UTC)
남서8kt
시정 10km 이상
고도 2500ft 상공 구름 조금
전환 중
15일 17시부터 15일 20시까지 (UTC)
시정: 6000m
고도 1000ft 상공 구름 보통
연무
확률 30% :
일시적
15일 19시부터 15일 22시까지 (UTC)
고도 500ft 상공 구름 보통
고도 800ft 상공 구름 많음

TAF: LXGB 151335Z 1515/1522 22008KT 9999 FEW025 BECMG 1517/1520 6000 HZ SCT010 PROB30 TEMPO 1519/1522 SCT005 BKN008

4,000개 이상의 공항 관측 자료 및 예보 (METAR 및 TAF 보고).

지도상에서 검색 가능한 기상관측소가 노란 점과 빨간 점으로 표시되어 있습니다.

기상관측소 명을 보려면 표시 위로 마우스를 이동하세요.

날씨 관측과 예보를 보려면 클릭하세요.

지도 변경 : 확대하려면 엑스 표시가 있는 녹색 버튼, 축소하려면 빼기 표시가 있는 녹색 버튼, 다음 페이지의 지도를 보려면 녹색 화살표를 클릭하세요.


METAR-TAF: